Terminal Aerodrome Forecast
Issued by NWS Corpus Christi, TX

Home | Current Version | Previous Version | Text Only | Print | Product List | Glossary On
Versions: 1 2 3 4 5 6 7 8 9 10 11 12 13 14 15 16 17 18 19
534
FTUS44 KCRP 300912 AAB
TAFCRP
TAF AMD
KCRP 300912Z 3009/0106 36018G25KT P6SM OVC060
     FM301600 33015KT P6SM SKC
     FM010100 VRB06KT P6SM SKC=

USA.gov is the U.S. government's official web portal to all federal, state and local government web resources and services.